createdAt,value
2019-01-24T00:02:06.316Z,-1.50
2019-01-24T00:04:35.910Z,-1.83
2019-01-24T00:07:05.519Z,-1.78
2019-01-24T00:09:35.098Z,-1.47
2019-01-24T00:12:04.980Z,-1.49
2019-01-24T00:14:34.567Z,-1.42
2019-01-24T00:17:04.247Z,-1.52
2019-01-24T00:19:33.821Z,-1.90
2019-01-24T00:22:03.585Z,-1.56
2019-01-24T00:24:33.188Z,-1.56
2019-01-24T00:27:02.779Z,-1.47
2019-01-24T00:29:32.404Z,-1.51
2019-01-24T00:32:01.974Z,-1.49
2019-01-24T00:34:31.577Z,-1.31
2019-01-24T00:37:01.223Z,-1.48
2019-01-24T00:39:30.832Z,-1.54
2019-01-24T00:42:00.394Z,-1.30
2019-01-24T00:44:30.008Z,-1.20
2019-01-24T00:46:59.578Z,-1.44
2019-01-24T00:49:29.248Z,-1.16
2019-01-24T00:51:58.849Z,-1.05
2019-01-24T00:54:28.461Z,-1.29
2019-01-24T00:56:58.046Z,-1.37
2019-01-24T00:59:27.685Z,-1.28
2019-01-24T01:01:57.263Z,-1.26
2019-01-24T01:04:29.791Z,-1.21
2019-01-24T01:07:17.571Z,-1.33
2019-01-24T01:09:47.175Z,-1.32
2019-01-24T01:12:16.813Z,-1.26
2019-01-24T01:14:46.412Z,-1.66
2019-01-24T01:17:16.002Z,-1.87
2019-01-24T01:19:45.606Z,-1.84
2019-01-24T01:22:15.208Z,-1.88
2019-01-24T01:24:44.789Z,-1.51
2019-01-24T01:27:14.488Z,-1.86
2019-01-24T01:29:44.157Z,-1.65
2019-01-24T01:32:13.829Z,-1.40
2019-01-24T01:34:43.425Z,-1.21
2019-01-24T01:37:13.116Z,-1.09
2019-01-24T01:39:42.711Z,-1.13
2019-01-24T01:42:12.283Z,-1.00
2019-01-24T01:44:41.908Z,-1.07
2019-01-24T01:47:11.596Z,-1.39
2019-01-24T01:49:42.332Z,-1.69
2019-01-24T01:52:11.964Z,-1.48
2019-01-24T01:54:41.566Z,-1.28
2019-01-24T01:57:11.178Z,-1.16
2019-01-24T01:59:40.779Z,-1.20
2019-01-24T02:02:10.395Z,-1.11
2019-01-24T02:04:42.942Z,-1.02
2019-01-24T02:07:11.358Z,-0.92
2019-01-24T02:09:40.968Z,-1.07
2019-01-24T02:12:10.563Z,-0.94
2019-01-24T02:14:40.188Z,-0.98
2019-01-24T02:17:09.756Z,-1.17
2019-01-24T02:19:39.390Z,-1.19
2019-01-24T02:22:09.202Z,-1.05
2019-01-24T02:24:39.023Z,-0.94
2019-01-24T02:27:08.628Z,-1.22
2019-01-24T02:29:38.225Z,-1.06
2019-01-24T02:32:07.809Z,-1.36
2019-01-24T02:34:37.451Z,-1.68
2019-01-24T02:37:07.068Z,-1.68
2019-01-24T02:39:36.667Z,-1.58
2019-01-24T02:42:06.254Z,-1.30
2019-01-24T02:44:35.881Z,-1.16
2019-01-24T02:47:11.220Z,-1.49
2019-01-24T02:49:40.832Z,-1.76
2019-01-24T02:52:14.755Z,-1.52
2019-01-24T02:54:44.329Z,-1.45
2019-01-24T02:57:13.935Z,-1.44
2019-01-24T02:59:43.513Z,-1.43
2019-01-24T03:02:13.158Z,-1.39
2019-01-24T03:04:48.842Z,-1.59
2019-01-24T03:07:18.419Z,-1.74
2019-01-24T03:09:47.994Z,-1.62
2019-01-24T03:12:17.627Z,-1.54
2019-01-24T03:14:47.205Z,-1.73
2019-01-24T03:17:16.775Z,-1.58
2019-01-24T03:19:46.356Z,-1.35
2019-01-24T03:22:15.947Z,-1.24
2019-01-24T03:24:45.513Z,-1.44
2019-01-24T03:27:15.167Z,-1.45
2019-01-24T03:29:44.748Z,-1.61
2019-01-24T03:32:14.340Z,-1.58
2019-01-24T03:34:43.921Z,-1.71
2019-01-24T03:37:13.519Z,-1.60
2019-01-24T03:39:43.096Z,-1.39
2019-01-24T03:42:12.704Z,-1.32
2019-01-24T03:44:42.321Z,-1.30
2019-01-24T03:47:11.932Z,-1.36
2019-01-24T03:49:41.562Z,-1.21
2019-01-24T03:52:11.133Z,-1.16
2019-01-24T03:54:40.712Z,-1.49
2019-01-24T03:57:10.421Z,-1.39
2019-01-24T03:59:40.008Z,-1.29
2019-01-24T04:02:09.574Z,-1.21
2019-01-24T04:04:39.191Z,-1.16
2019-01-24T04:07:28.135Z,-1.18
2019-01-24T04:09:57.738Z,-1.25
2019-01-24T04:12:27.327Z,-1.39
2019-01-24T04:14:56.965Z,-1.69
2019-01-24T04:17:26.572Z,-1.57
2019-01-24T04:19:56.152Z,-1.60
2019-01-24T04:22:25.761Z,-1.31
2019-01-24T04:24:55.357Z,-1.62
2019-01-24T04:27:24.957Z,-1.44
2019-01-24T04:29:54.533Z,-1.80
2019-01-24T04:32:24.142Z,-1.71
2019-01-24T04:34:53.740Z,-1.76
2019-01-24T04:37:23.337Z,-1.51
2019-01-24T04:39:52.911Z,-1.61
2019-01-24T04:42:22.526Z,-1.46
2019-01-24T04:44:52.149Z,-1.39
2019-01-24T04:47:21.727Z,-1.26
2019-01-24T04:49:51.295Z,-1.30
2019-01-24T04:52:20.871Z,-1.26
2019-01-24T04:54:50.657Z,-1.24
2019-01-24T04:57:20.263Z,-1.59
2019-01-24T04:59:49.837Z,-1.39
2019-01-24T05:02:19.479Z,-1.56
2019-01-24T05:04:49.066Z,-1.69
2019-01-24T05:07:18.727Z,-1.71
2019-01-24T05:09:48.322Z,-1.47
2019-01-24T05:12:17.881Z,-1.67
2019-01-24T05:14:47.450Z,-1.68
2019-01-24T05:17:17.062Z,-1.61
2019-01-24T05:19:46.663Z,-1.77
2019-01-24T05:22:19.731Z,-1.94
2019-01-24T05:24:49.342Z,-1.75
2019-01-24T05:27:18.923Z,-1.83
2019-01-24T05:29:48.560Z,-2.01
2019-01-24T05:32:18.163Z,-1.82
2019-01-24T05:34:47.743Z,-1.72
2019-01-24T05:37:17.367Z,-1.72
2019-01-24T05:39:46.988Z,-1.53
2019-01-24T05:42:16.611Z,-1.53
2019-01-24T05:44:46.183Z,-1.59
2019-01-24T05:47:15.915Z,-1.58
2019-01-24T05:49:45.524Z,-1.83
2019-01-24T05:52:19.343Z,-1.75
2019-01-24T05:54:46.477Z,-1.85
2019-01-24T05:57:17.172Z,-1.83
2019-01-24T05:59:46.728Z,-1.71
2019-01-24T06:02:16.373Z,-1.80
2019-01-24T06:04:45.962Z,-1.65
2019-01-24T06:07:15.558Z,-1.63
2019-01-24T06:09:45.154Z,-1.53
2019-01-24T06:12:14.733Z,-1.66
2019-01-24T06:14:44.336Z,-1.59
2019-01-24T06:17:13.966Z,-1.49
2019-01-24T06:19:43.550Z,-1.47
2019-01-24T06:22:13.142Z,-1.55
2019-01-24T06:24:42.789Z,-1.38
2019-01-24T06:27:12.363Z,-1.50
2019-01-24T06:29:41.942Z,-1.60
2019-01-24T06:32:11.953Z,-1.56
2019-01-24T06:34:41.552Z,-1.60
2019-01-24T06:37:11.149Z,-1.68
2019-01-24T06:39:46.879Z,-2.10
2019-01-24T06:42:16.506Z,-1.93
2019-01-24T06:44:46.068Z,-1.73
2019-01-24T06:47:15.660Z,-1.75
2019-01-24T06:49:45.223Z,-1.75
2019-01-24T06:52:14.834Z,-1.94
2019-01-24T06:54:44.422Z,-1.94
2019-01-24T06:57:14.013Z,-2.03
2019-01-24T06:59:43.847Z,-1.68
2019-01-24T07:02:13.449Z,-1.54
2019-01-24T07:04:43.062Z,-1.56
2019-01-24T07:07:12.668Z,-1.92
2019-01-24T07:09:42.256Z,-2.03
2019-01-24T07:12:11.837Z,-1.76
2019-01-24T07:14:41.456Z,-1.68
2019-01-24T07:17:11.073Z,-1.74
2019-01-24T07:19:40.652Z,-1.69
2019-01-24T07:22:10.239Z,-1.63
2019-01-24T07:24:40.742Z,-1.48
2019-01-24T07:27:10.360Z,-1.51
2019-01-24T07:29:39.899Z,-1.59
2019-01-24T07:32:09.515Z,-1.58
2019-01-24T07:34:39.124Z,-1.43
2019-01-24T07:37:08.685Z,-1.34
2019-01-24T07:39:38.276Z,-1.71
2019-01-24T07:42:07.865Z,-1.69
2019-01-24T07:44:37.479Z,-1.71
2019-01-24T07:47:07.075Z,-1.62
2019-01-24T07:49:36.712Z,-1.65
2019-01-24T07:52:06.806Z,-1.57
2019-01-24T07:54:36.441Z,-1.70
2019-01-24T07:57:06.322Z,-1.63
2019-01-24T07:59:35.936Z,-1.57
2019-01-24T08:02:06.413Z,-1.67
2019-01-24T08:04:36.097Z,-1.54
2019-01-24T08:07:05.826Z,-1.35
2019-01-24T08:09:54.783Z,-1.27
2019-01-24T08:12:24.392Z,-1.54
2019-01-24T08:14:55.500Z,-1.24
2019-01-24T08:17:25.347Z,-1.15
2019-01-24T08:19:54.919Z,-1.40
2019-01-24T08:22:24.523Z,-1.10
2019-01-24T08:24:54.069Z,-1.15
2019-01-24T08:27:23.672Z,-1.10
2019-01-24T08:29:53.246Z,-1.01
2019-01-24T08:32:22.990Z,-1.12
2019-01-24T08:34:52.577Z,-1.04
2019-01-24T08:37:22.169Z,-0.85
2019-01-24T08:39:51.777Z,-0.85
2019-01-24T08:42:21.356Z,-0.81
2019-01-24T08:44:50.924Z,-0.67
2019-01-24T08:47:20.544Z,-0.61
2019-01-24T08:49:50.127Z,-0.56
2019-01-24T08:52:20.356Z,-0.53
2019-01-24T08:54:50.153Z,-0.48
2019-01-24T08:57:19.744Z,-0.53
2019-01-24T08:59:49.323Z,-0.56
2019-01-24T09:02:18.936Z,-0.68
2019-01-24T09:04:49.710Z,-0.63
2019-01-24T09:07:19.329Z,-1.05
2019-01-24T09:09:50.670Z,-0.88
2019-01-24T09:12:20.277Z,-0.62
2019-01-24T09:14:49.892Z,-0.50
2019-01-24T09:17:21.593Z,-0.48
2019-01-24T09:19:51.172Z,-0.44
2019-01-24T09:22:21.032Z,-0.62
2019-01-24T09:24:50.686Z,-0.64
2019-01-24T09:27:20.303Z,-0.50
2019-01-24T09:29:49.993Z,-0.38
2019-01-24T09:32:20.723Z,-0.34
2019-01-24T09:34:50.296Z,-0.15
2019-01-24T09:37:19.876Z,-0.16
2019-01-24T09:39:52.185Z,-0.18
2019-01-24T09:42:21.787Z,-0.17
2019-01-24T09:44:51.359Z,-0.31
2019-01-24T09:47:21.056Z,-0.37
2019-01-24T09:49:50.664Z,-0.32
2019-01-24T09:52:20.221Z,-0.19
2019-01-24T09:54:49.857Z,-0.45
2019-01-24T09:57:19.466Z,-0.31
2019-01-24T10:00:11.350Z,-0.50
2019-01-24T10:02:40.990Z,-0.28
2019-01-24T10:05:11.319Z,-0.23
2019-01-24T10:07:40.908Z,-0.07
2019-01-24T10:10:15.048Z,0.06
2019-01-24T10:13:04.016Z,-0.15
2019-01-24T10:15:36.471Z,-0.09
2019-01-24T10:18:06.525Z,0.04
2019-01-24T10:20:36.236Z,-0.10
2019-01-24T10:23:06.055Z,0.08
2019-01-24T10:25:37.158Z,-0.02
2019-01-24T10:28:06.972Z,-0.24
2019-01-24T10:30:42.597Z,0.08
2019-01-24T10:33:08.352Z,0.23
2019-01-24T10:35:41.056Z,0.30
2019-01-24T10:38:10.693Z,-0.06
2019-01-24T10:40:40.288Z,0.14
2019-01-24T10:43:09.881Z,0.30
2019-01-24T10:45:39.482Z,0.33
2019-01-24T10:48:09.252Z,0.31
2019-01-24T10:50:38.859Z,0.35
2019-01-24T10:53:08.471Z,0.34
2019-01-24T10:55:39.553Z,0.23
2019-01-24T10:58:09.448Z,0.19
2019-01-24T11:00:40.961Z,-0.26
2019-01-24T11:03:12.287Z,0.14
2019-01-24T11:05:43.473Z,0.28
2019-01-24T11:08:13.084Z,0.25
2019-01-24T11:10:42.656Z,0.54
2019-01-24T11:13:12.338Z,0.66
2019-01-24T11:15:43.140Z,0.53
2019-01-24T11:18:12.691Z,0.09
2019-01-24T11:20:42.739Z,0.22
2019-01-24T11:23:12.317Z,0.26
2019-01-24T11:25:41.908Z,0.46
2019-01-24T11:28:11.500Z,-0.10
2019-01-24T11:30:41.738Z,0.16
2019-01-24T11:33:11.692Z,0.45
2019-01-24T11:35:41.626Z,0.70
2019-01-24T11:38:11.396Z,0.60
2019-01-24T11:40:41.024Z,0.44
2019-01-24T11:43:10.773Z,0.78
2019-01-24T11:45:42.047Z,1.01
2019-01-24T11:48:13.093Z,0.93
2019-01-24T11:50:43.143Z,1.16
2019-01-24T11:53:12.835Z,1.28
2019-01-24T11:55:42.455Z,1.32
2019-01-24T11:58:12.062Z,1.42
2019-01-24T12:00:43.290Z,1.45
2019-01-24T12:03:13.025Z,1.32
2019-01-24T12:05:42.616Z,1.28
2019-01-24T12:08:12.459Z,1.63
2019-01-24T12:10:42.374Z,1.12
2019-01-24T12:13:12.391Z,1.45
2019-01-24T12:15:41.967Z,1.70
2019-01-24T12:18:11.576Z,1.75
2019-01-24T12:20:41.223Z,0.64
2019-01-24T12:23:10.834Z,1.09
2019-01-24T12:25:40.412Z,1.04
2019-01-24T12:28:11.485Z,1.54
2019-01-24T12:30:41.215Z,1.87
2019-01-24T12:33:10.849Z,2.07
2019-01-24T12:35:40.557Z,2.19
2019-01-24T12:38:10.293Z,1.90
2019-01-24T12:40:42.943Z,0.59
2019-01-24T12:43:12.525Z,1.07
2019-01-24T12:45:42.110Z,1.40
2019-01-24T12:48:11.721Z,1.46
2019-01-24T12:50:41.509Z,1.61
2019-01-24T12:53:11.085Z,1.24
2019-01-24T12:55:40.643Z,1.28
2019-01-24T12:58:10.251Z,1.48
2019-01-24T13:00:40.114Z,1.53
2019-01-24T13:03:09.702Z,1.49
2019-01-24T13:05:39.498Z,1.30
2019-01-24T13:08:09.284Z,1.24
2019-01-24T13:10:38.834Z,0.84
2019-01-24T13:13:08.726Z,0.99
2019-01-24T13:15:38.465Z,0.93
2019-01-24T13:18:08.120Z,1.18
2019-01-24T13:20:39.079Z,1.26
2019-01-24T13:23:08.674Z,1.22
2019-01-24T13:25:38.763Z,0.59
2019-01-24T13:28:08.379Z,0.38
2019-01-24T13:30:37.927Z,0.36
2019-01-24T13:33:07.930Z,0.14
2019-01-24T13:35:37.592Z,0.53
2019-01-24T13:38:08.092Z,0.61
2019-01-24T13:40:37.694Z,0.38
2019-01-24T13:43:07.682Z,0.71
2019-01-24T13:45:38.126Z,0.77
2019-01-24T13:48:07.938Z,0.68
2019-01-24T13:50:56.817Z,0.40
2019-01-24T13:53:26.411Z,0.39
2019-01-24T13:56:15.300Z,-0.32
2019-01-24T13:58:44.872Z,0.28
2019-01-24T14:01:14.456Z,-0.16
2019-01-24T14:03:44.369Z,-0.04
2019-01-24T14:06:13.925Z,0.18
2019-01-24T14:08:43.497Z,0.17
2019-01-24T14:11:18.039Z,0.05
2019-01-24T14:13:44.448Z,0.08
2019-01-24T14:16:14.093Z,0.17
2019-01-24T14:18:43.808Z,0.23
2019-01-24T14:21:13.364Z,0.30
2019-01-24T14:23:42.952Z,0.33
2019-01-24T14:26:13.374Z,0.13
2019-01-24T14:28:42.990Z,-0.03
2019-01-24T14:31:14.169Z,0.00
2019-01-24T14:34:02.947Z,-0.11
2019-01-24T14:36:32.637Z,0.21
2019-01-24T14:39:02.201Z,-0.36
2019-01-24T14:41:32.160Z,-0.18
2019-01-24T14:44:01.745Z,-0.10
2019-01-24T14:46:31.334Z,0.07
2019-01-24T14:49:00.943Z,0.28
2019-01-24T14:51:30.582Z,0.28
2019-01-24T14:54:00.179Z,0.17
2019-01-24T14:56:29.782Z,-0.04
2019-01-24T14:58:59.370Z,0.10
2019-01-24T15:01:28.948Z,0.02
2019-01-24T15:03:58.938Z,-0.05
2019-01-24T15:06:28.524Z,-0.08
2019-01-24T15:08:58.112Z,-0.07
2019-01-24T15:11:27.738Z,-0.08
2019-01-24T15:13:57.322Z,-0.16
2019-01-24T15:16:26.935Z,-0.19
2019-01-24T15:18:56.383Z,-0.32
2019-01-24T15:21:25.979Z,-0.30
2019-01-24T15:23:55.552Z,-0.29
2019-01-24T15:26:25.173Z,-0.37
2019-01-24T15:28:54.766Z,-0.29
2019-01-24T15:31:24.378Z,-0.30
2019-01-24T15:33:54.007Z,-0.36
2019-01-24T15:36:23.562Z,-0.41
2019-01-24T15:38:53.466Z,-0.53
2019-01-24T15:41:23.218Z,-0.68
2019-01-24T15:43:52.802Z,-0.57
2019-01-24T15:46:22.369Z,-0.49
2019-01-24T15:48:51.955Z,-0.48
2019-01-24T15:51:21.662Z,-0.39
2019-01-24T15:53:51.188Z,-0.44
2019-01-24T15:56:20.842Z,-0.44
2019-01-24T15:58:50.433Z,-0.55
2019-01-24T16:01:19.994Z,-0.66
2019-01-24T16:03:49.965Z,-0.64
2019-01-24T16:06:19.560Z,-0.56
2019-01-24T16:08:49.178Z,-0.55
2019-01-24T16:11:18.777Z,-0.53
2019-01-24T16:13:48.367Z,-0.75
2019-01-24T16:16:17.954Z,-0.64
2019-01-24T16:18:47.573Z,-0.69
2019-01-24T16:22:30.019Z,-0.73
2019-01-24T16:24:59.619Z,-0.86
2019-01-24T16:27:29.225Z,-0.68
2019-01-24T16:29:58.785Z,-0.64
2019-01-24T16:32:28.372Z,-0.59
2019-01-24T16:34:57.973Z,-0.62
2019-01-24T16:37:27.565Z,-0.57
2019-01-24T16:39:58.095Z,-0.51
2019-01-24T16:42:27.653Z,-0.51
2019-01-24T16:44:58.265Z,-0.60
2019-01-24T16:47:27.786Z,-0.56
2019-01-24T16:49:57.351Z,-0.55
2019-01-24T16:52:29.924Z,-0.47
2019-01-24T16:55:00.775Z,-0.64
2019-01-24T16:57:30.721Z,-0.63
2019-01-24T17:00:00.325Z,-0.70
2019-01-24T17:02:29.993Z,-0.79
2019-01-24T17:04:59.551Z,-0.75
2019-01-24T17:07:29.158Z,-0.79
2019-01-24T17:09:58.757Z,-0.80
2019-01-24T17:12:28.358Z,-0.72
2019-01-24T17:14:57.934Z,-0.90
2019-01-24T17:17:27.614Z,-0.83
2019-01-24T17:19:57.208Z,-0.81
2019-01-24T17:22:26.805Z,-0.82
2019-01-24T17:24:56.393Z,-0.74
2019-01-24T17:27:25.976Z,-0.73
2019-01-24T17:29:55.526Z,-0.79
2019-01-24T17:32:25.131Z,-0.81
2019-01-24T17:34:54.695Z,-0.82
2019-01-24T17:37:24.292Z,-0.86
2019-01-24T17:39:53.921Z,-0.95
2019-01-24T17:42:23.519Z,-0.95
2019-01-24T17:44:54.608Z,-1.05
2019-01-24T17:47:24.606Z,-1.05
2019-01-24T17:49:54.200Z,-1.11
2019-01-24T17:52:25.356Z,-1.16
2019-01-24T17:54:54.984Z,-1.17
2019-01-24T17:57:24.559Z,-1.20
2019-01-24T17:59:54.162Z,-1.15
2019-01-24T18:02:23.793Z,-1.16
2019-01-24T18:04:53.380Z,-1.18
2019-01-24T18:07:23.183Z,-1.27
2019-01-24T18:09:52.775Z,-1.29
2019-01-24T18:12:22.345Z,-1.33
2019-01-24T18:14:53.399Z,-1.25
2019-01-24T18:17:23.094Z,-1.41
2019-01-24T18:19:52.712Z,-1.36
2019-01-24T18:22:22.222Z,-1.22
2019-01-24T18:24:53.315Z,-1.26
2019-01-24T18:27:23.946Z,-1.24
2019-01-24T18:29:53.557Z,-1.23
2019-01-24T18:32:23.131Z,-1.18
2019-01-24T18:34:52.736Z,-1.13
2019-01-24T18:37:22.302Z,-1.16
2019-01-24T18:39:54.836Z,-1.21
2019-01-24T18:42:24.427Z,-1.15
2019-01-24T18:44:54.070Z,-1.18
2019-01-24T18:47:24.535Z,-1.09
2019-01-24T18:49:54.257Z,-1.13
2019-01-24T18:52:23.813Z,-1.24
2019-01-24T18:54:53.458Z,-1.11
2019-01-24T18:57:28.936Z,-1.06
2019-01-24T18:59:58.500Z,-1.05
2019-01-24T19:02:28.232Z,-1.06
2019-01-24T19:04:57.865Z,-1.01
2019-01-24T19:07:27.429Z,-1.20
2019-01-24T19:09:57.155Z,-1.30
2019-01-24T19:12:26.756Z,-1.27
2019-01-24T19:15:18.542Z,-1.43
2019-01-24T19:17:54.694Z,-1.06
2019-01-24T19:20:24.371Z,-1.26
2019-01-24T19:22:54.020Z,-1.25
2019-01-24T19:25:43.053Z,-1.21
2019-01-24T19:28:12.784Z,-1.27
2019-01-24T19:30:42.475Z,-1.16
2019-01-24T19:33:12.206Z,-1.15
2019-01-24T19:35:41.778Z,-1.21
2019-01-24T19:38:12.957Z,-1.11
2019-01-24T19:40:42.641Z,-1.01
2019-01-24T19:43:12.077Z,-0.99
2019-01-24T19:45:41.655Z,-1.16
2019-01-24T19:48:11.363Z,-1.03
2019-01-24T19:50:41.197Z,-0.93
2019-01-24T19:53:10.835Z,-0.93
2019-01-24T19:55:40.420Z,-0.98
2019-01-24T19:58:10.002Z,-0.99
2019-01-24T20:00:39.578Z,-1.04
2019-01-24T20:03:09.421Z,-1.00
2019-01-24T20:05:39.023Z,-1.00
2019-01-24T20:08:10.310Z,-1.03
2019-01-24T20:10:40.114Z,-0.97
2019-01-24T20:13:09.742Z,-1.03
2019-01-24T20:15:39.421Z,-0.91
2019-01-24T20:18:09.643Z,-0.99
2019-01-24T20:20:40.691Z,-1.18
2019-01-24T20:23:16.340Z,-1.25
2019-01-24T20:25:54.036Z,-1.47
2019-01-24T20:28:42.999Z,-1.38
2019-01-24T20:31:32.715Z,-1.36
2019-01-24T20:34:02.316Z,-1.35
2019-01-24T20:36:32.089Z,-1.23
2019-01-24T20:39:07.398Z,-1.15
2019-01-24T20:41:33.025Z,-1.14
2019-01-24T20:44:02.605Z,-1.35
2019-01-24T20:46:32.276Z,-1.49
2019-01-24T20:49:21.191Z,-1.61
2019-01-24T20:51:50.797Z,-1.73
2019-01-24T20:54:20.351Z,-1.87
2019-01-24T20:56:49.992Z,-1.67
2019-01-24T20:59:19.557Z,-1.62
2019-01-24T21:01:49.135Z,-1.64
2019-01-24T21:04:18.742Z,-1.60
2019-01-24T21:06:48.320Z,-1.88
2019-01-24T21:09:17.887Z,-1.84
2019-01-24T21:11:47.536Z,-1.81
2019-01-24T21:14:17.130Z,-1.93
2019-01-24T21:16:46.726Z,-1.87
2019-01-24T21:19:16.356Z,-1.97
2019-01-24T21:21:45.919Z,-2.10
2019-01-24T21:24:15.498Z,-2.12
2019-01-24T21:26:45.268Z,-2.24
2019-01-24T21:29:14.832Z,-2.29
2019-01-24T21:31:44.444Z,-2.38
2019-01-24T21:34:14.354Z,-2.64
2019-01-24T21:36:43.933Z,-2.70
2019-01-24T21:39:13.503Z,-2.74
2019-01-24T21:41:43.140Z,-2.80
2019-01-24T21:44:12.737Z,-2.68
2019-01-24T21:46:43.782Z,-2.70
2019-01-24T21:49:13.465Z,-2.56
2019-01-24T21:51:43.059Z,-2.34
2019-01-24T21:54:12.652Z,-2.20
2019-01-24T21:56:42.241Z,-2.04
2019-01-24T21:59:11.849Z,-2.04
2019-01-24T22:01:41.473Z,-1.90
2019-01-24T22:04:11.098Z,-1.94
2019-01-24T22:06:59.970Z,-1.83
2019-01-24T22:09:29.626Z,-1.87
2019-01-24T22:11:59.217Z,-1.76
2019-01-24T22:14:28.812Z,-1.76
2019-01-24T22:16:58.570Z,-1.89
2019-01-24T22:19:28.136Z,-1.79
2019-01-24T22:21:57.924Z,-1.83
2019-01-24T22:24:27.532Z,-1.81
2019-01-24T22:26:57.163Z,-1.71
2019-01-24T22:29:26.738Z,-1.73
2019-01-24T22:31:56.372Z,-1.75
2019-01-24T22:34:26.907Z,-1.78
2019-01-24T22:36:56.474Z,-1.90
2019-01-24T22:39:26.093Z,-1.99
2019-01-24T22:41:55.687Z,-1.97
2019-01-24T22:44:44.593Z,-2.05
2019-01-24T22:47:14.190Z,-2.16
2019-01-24T22:49:43.783Z,-2.12
2019-01-24T22:52:14.898Z,-2.10
2019-01-24T22:54:44.473Z,-2.09
2019-01-24T22:57:14.065Z,-2.12
2019-01-24T22:59:45.196Z,-2.11
2019-01-24T23:02:15.377Z,-2.13
2019-01-24T23:04:44.974Z,-2.19
2019-01-24T23:07:14.597Z,-2.15
2019-01-24T23:10:05.109Z,-2.16
2019-01-24T23:12:34.910Z,-2.17
2019-01-24T23:15:08.266Z,-2.28
2019-01-24T23:17:37.835Z,-2.32
2019-01-24T23:20:12.079Z,-2.42
2019-01-24T23:22:41.681Z,-2.46
2019-01-24T23:25:11.688Z,-2.41
2019-01-24T23:27:41.318Z,-2.33
2019-01-24T23:30:13.509Z,-2.34
2019-01-24T23:32:43.116Z,-2.31
2019-01-24T23:35:13.135Z,-2.24
2019-01-24T23:37:42.741Z,-2.33
2019-01-24T23:40:13.234Z,-2.30
2019-01-24T23:42:42.878Z,-2.31
2019-01-24T23:45:13.100Z,-2.28
2019-01-24T23:47:42.765Z,-2.27
2019-01-24T23:50:12.859Z,-2.22
2019-01-24T23:52:42.429Z,-2.21
2019-01-24T23:55:12.348Z,-2.16
2019-01-24T23:57:41.972Z,-2.19
